Time;durP1;ratioP1;P1;durP2;ratioP2;P2;SDS_P1;SDS_P2;PMS_P1;PMS_P2;Temp;Humidity;BMP_temperature;BMP_pressure;BME280_temperature;BME280_humidity;BME280_pressure;Samples;Min_cycle;Max_cycle;Signal;HPM_P1;HPM_P2
2022/07/01 00:00:18;;;;;;;2.70;1.00;;;18.40;56.40;;;;;;4946125;28;20039;-77
2022/07/01 00:02:44;;;;;;;3.08;1.35;;;18.40;56.40;;;;;;4934525;29;20036;-76
2022/07/01 00:05:10;;;;;;;1.25;1.08;;;18.40;56.50;;;;;;4925605;29;20122;-75
2022/07/01 00:07:53;;;;;;;3.13;1.25;;;18.30;56.30;;;;;;4926686;29;20031;-75
2022/07/01 00:10:19;;;;;;;1.50;1.38;;;18.30;56.40;;;;;;4933809;28;20302;-76
2022/07/01 00:12:46;;;;;;;1.33;0.77;;;18.30;56.50;;;;;;4920962;29;20376;-76
2022/07/01 00:15:12;;;;;;;2.50;0.85;;;18.30;56.50;;;;;;4911067;29;20082;-75
2022/07/01 00:17:39;;;;;;;3.47;1.00;;;18.30;56.60;;;;;;4941582;28;20032;-77
2022/07/01 00:20:07;;;;;;;3.17;1.10;;;18.30;56.70;;;;;;4941133;28;20411;-76
2022/07/01 00:22:34;;;;;;;2.55;1.23;;;18.20;56.60;;;;;;4943544;28;20031;-75
2022/07/01 00:25:00;;;;;;;4.20;2.10;;;18.20;56.70;;;;;;4949601;28;20421;-76
2022/07/01 00:27:26;;;;;;;1.58;1.00;;;18.20;56.70;;;;;;4934591;28;20046;-76
2022/07/01 00:29:52;;;;;;;4.30;1.45;;;18.10;56.60;;;;;;4915200;29;20443;-78
2022/07/01 00:32:18;;;;;;;2.88;1.50;;;18.10;56.70;;;;;;4948374;29;20066;-76
2022/07/01 00:34:44;;;;;;;1.13;0.90;;;18.10;56.80;;;;;;4939410;28;20487;-75
2022/07/01 00:37:10;;;;;;;1.75;1.20;;;18.10;56.90;;;;;;4951004;28;20106;-76
2022/07/01 00:39:36;;;;;;;1.48;1.02;;;18.10;56.90;;;;;;4911759;29;20173;-75
2022/07/01 00:42:05;;;;;;;1.17;0.77;;;18.10;57.00;;;;;;4925548;28;20070;-77
2022/07/01 00:44:32;;;;;;;2.45;0.98;;;18.00;56.90;;;;;;4922830;28;20058;-78
2022/07/01 00:47:01;;;;;;;2.78;1.17;;;18.00;57.00;;;;;;4930783;28;20043;-77
2022/07/01 00:49:27;;;;;;;1.58;0.80;;;18.00;57.10;;;;;;4932097;29;20352;-75
2022/07/01 00:51:53;;;;;;;3.17;1.05;;;18.00;57.10;;;;;;4914986;29;20054;-76
2022/07/01 00:54:20;;;;;;;1.42;1.00;;;18.00;57.90;;;;;;4941132;28;20561;-74
2022/07/01 00:56:48;;;;;;;2.63;1.42;;;18.00;57.40;;;;;;4940099;28;20054;-76
2022/07/01 00:59:14;;;;;;;2.45;1.20;;;17.90;57.20;;;;;;4928002;28;20489;-77
2022/07/01 01:01:41;;;;;;;1.90;0.68;;;17.90;57.30;;;;;;4917900;29;20031;-75
2022/07/01 01:04:07;;;;;;;1.67;1.02;;;17.80;57.20;;;;;;4927517;29;20035;-77
2022/07/01 01:06:34;;;;;;;3.90;1.27;;;17.80;57.30;;;;;;4925616;29;20308;-76
2022/07/01 01:09:00;;;;;;;6.45;1.92;;;17.80;57.40;;;;;;4935247;29;20279;-76
2022/07/01 01:11:26;;;;;;;2.95;1.40;;;17.80;57.50;;;;;;4941465;29;20053;-76
2022/07/01 01:13:52;;;;;;;2.13;1.00;;;17.80;57.50;;;;;;4929537;28;20058;-77
2022/07/01 01:16:22;;;;;;;2.97;1.23;;;17.70;57.40;;;;;;4939680;29;20508;-76
2022/07/01 01:18:49;;;;;;;1.45;0.90;;;17.70;57.50;;;;;;4927333;29;20066;-77
2022/07/01 01:21:15;;;;;;;2.50;1.08;;;17.70;57.50;;;;;;4946443;29;20027;-77
2022/07/01 01:23:42;;;;;;;1.85;0.93;;;17.70;57.60;;;;;;4932711;29;20294;-76
2022/07/01 01:26:23;;;;;;;1.23;0.80;;;17.60;57.50;;;;;;4931863;29;20046;-77
2022/07/01 01:28:49;;;;;;;2.15;1.25;;;17.60;57.70;;;;;;4951213;29;20134;-76
2022/07/01 01:31:16;;;;;;;2.00;1.38;;;17.60;57.70;;;;;;4960890;29;20046;-75
2022/07/01 01:33:42;;;;;;;2.80;1.00;;;17.50;57.50;;;;;;4944239;29;20116;-76
2022/07/01 01:36:08;;;;;;;2.47;1.15;;;17.50;57.70;;;;;;4944225;28;20142;-76
2022/07/01 01:38:37;;;;;;;3.42;1.20;;;17.50;57.70;;;;;;4935424;29;20052;-76
2022/07/01 01:41:09;;;;;;;2.70;1.10;;;17.50;57.80;;;;;;4931801;29;20042;-77
2022/07/01 01:43:40;;;;;;;2.33;1.10;;;17.50;57.80;;;;;;4931618;29;20047;-75
2022/07/01 01:46:06;;;;;;;1.20;1.10;;;17.50;57.90;;;;;;4927498;29;20261;-78
2022/07/01 01:48:31;;;;;;;2.20;1.15;;;17.50;58.00;;;;;;4947904;29;20043;-76
2022/07/01 01:50:57;;;;;;;3.17;1.10;;;17.50;58.00;;;;;;4952847;29;20130;-76
2022/07/01 01:53:24;;;;;;;1.20;0.90;;;17.40;58.00;;;;;;4947819;29;20023;-76
2022/07/01 01:55:50;;;;;;;1.38;0.98;;;17.50;58.20;;;;;;4940733;29;20134;-75
2022/07/01 01:58:16;;;;;;;2.80;1.10;;;17.40;58.10;;;;;;4949701;29;20027;-77
2022/07/01 02:00:42;;;;;;;2.13;1.15;;;17.40;58.10;;;;;;4951597;29;20268;-76
2022/07/01 02:03:08;;;;;;;2.95;1.20;;;17.40;58.20;;;;;;4934110;29;20050;-76
2022/07/01 02:05:36;;;;;;;4.28;1.80;;;17.40;58.30;;;;;;4943559;29;20038;-75
2022/07/01 02:08:02;;;;;;;3.92;2.50;;;17.30;58.10;;;;;;4933197;29;20424;-75
2022/07/01 02:10:28;;;;;;;2.03;0.98;;;17.40;58.30;;;;;;4948847;29;20069;-77
2022/07/01 02:12:54;;;;;;;1.40;0.90;;;17.30;58.20;;;;;;4936707;29;20484;-75
2022/07/01 02:15:20;;;;;;;3.45;1.20;;;17.30;58.20;;;;;;4930627;29;20134;-75
2022/07/01 02:17:46;;;;;;;1.73;1.30;;;17.30;58.20;;;;;;4930226;29;20459;-75
2022/07/01 02:20:14;;;;;;;3.03;1.50;;;17.20;58.10;;;;;;4934689;29;20031;-76
2022/07/01 02:22:41;;;;;;;3.70;2.10;;;17.30;58.30;;;;;;4935264;29;20468;-77
2022/07/01 02:25:09;;;;;;;2.33;0.95;;;17.20;58.20;;;;;;4950788;29;20365;-77
2022/07/01 02:27:36;;;;;;;3.58;1.25;;;17.20;58.80;;;;;;4909226;29;20039;-75
2022/07/01 02:30:05;;;;;;;2.70;1.48;;;17.20;58.30;;;;;;4922818;29;20459;-76
2022/07/01 02:32:31;;;;;;;2.38;1.05;;;17.20;58.40;;;;;;4930302;29;20118;-76
2022/07/01 02:34:57;;;;;;;5.43;1.40;;;17.10;58.30;;;;;;4951952;29;20387;-75
2022/07/01 02:37:23;;;;;;;2.35;1.40;;;17.00;58.10;;;;;;4941255;29;20035;-76
2022/07/01 02:39:49;;;;;;;2.22;1.25;;;17.00;58.30;;;;;;4931753;29;20031;-77
2022/07/01 02:42:25;;;;;;;3.03;1.20;;;16.90;58.20;;;;;;4950517;29;20170;-75
2022/07/01 02:44:53;;;;;;;1.77;1.08;;;16.90;58.20;;;;;;4942482;29;20059;-76
2022/07/01 02:47:23;;;;;;;4.32;1.67;;;16.90;58.30;;;;;;4927153;29;20484;-75
2022/07/01 02:49:51;;;;;;;1.25;1.15;;;16.90;58.40;;;;;;4946490;29;20034;-78
2022/07/01 02:52:17;;;;;;;4.72;1.20;;;16.80;58.20;;;;;;4950238;29;20130;-76
2022/07/01 02:54:43;;;;;;;4.53;1.30;;;16.80;58.20;;;;;;4929074;29;20070;-76
2022/07/01 02:57:09;;;;;;;3.13;1.35;;;16.80;58.40;;;;;;4950441;29;20424;-77
2022/07/01 02:59:35;;;;;;;2.75;1.10;;;16.80;58.40;;;;;;4950421;29;20440;-76
2022/07/01 03:02:01;;;;;;;1.77;1.05;;;16.70;58.30;;;;;;4931969;29;20130;-76
2022/07/01 03:04:27;;;;;;;2.13;1.10;;;16.70;58.40;;;;;;4930005;29;20090;-75
2022/07/01 03:06:53;;;;;;;2.65;1.30;;;16.60;58.20;;;;;;4950448;29;20036;-76
2022/07/01 03:09:19;;;;;;;2.70;1.45;;;16.60;58.30;;;;;;4931864;29;20039;-76
2022/07/01 03:11:45;;;;;;;2.83;1.00;;;16.60;58.40;;;;;;4949019;29;20471;-76
2022/07/01 03:14:11;;;;;;;2.55;1.10;;;16.50;58.30;;;;;;4932432;29;20035;-77
2022/07/01 03:16:36;;;;;;;3.65;1.40;;;16.50;58.40;;;;;;4941228;29;20097;-77
2022/07/01 03:19:03;;;;;;;1.75;1.00;;;16.50;58.50;;;;;;4943476;29;20471;-75
2022/07/01 03:21:28;;;;;;;5.97;1.85;;;16.40;58.30;;;;;;4932415;29;20042;-75
2022/07/01 03:23:54;;;;;;;3.65;1.30;;;16.40;58.40;;;;;;4949955;29;20027;-76
2022/07/01 03:26:21;;;;;;;2.33;1.40;;;16.40;58.50;;;;;;4931263;29;20126;-76
2022/07/01 03:28:47;;;;;;;3.20;1.20;;;16.30;58.30;;;;;;4949294;29;20050;-77
2022/07/01 03:31:13;;;;;;;1.73;1.10;;;16.30;58.40;;;;;;4916240;29;20057;-76
2022/07/01 03:33:39;;;;;;;2.95;1.60;;;16.30;58.50;;;;;;4949000;29;20046;-74
2022/07/01 03:36:05;;;;;;;1.95;1.10;;;16.20;58.30;;;;;;4949233;29;20269;-74
2022/07/01 03:38:31;;;;;;;2.33;1.02;;;16.20;58.40;;;;;;4947511;29;20106;-77
2022/07/01 03:40:56;;;;;;;5.15;1.33;;;16.10;58.30;;;;;;4912664;29;20606;-75
2022/07/01 03:43:22;;;;;;;2.55;1.17;;;16.10;58.40;;;;;;4916842;29;20047;-75
2022/07/01 03:45:48;;;;;;;3.78;1.23;;;16.10;58.50;;;;;;4946336;29;20074;-76
2022/07/01 03:48:16;;;;;;;1.63;1.00;;;16.00;58.40;;;;;;4949594;29;20053;-75
2022/07/01 03:50:41;;;;;;;3.13;1.55;;;16.00;58.40;;;;;;4909350;29;20207;-76
2022/07/01 03:55:52;;;;;;;1.60;1.27;;;16.00;58.60;;;;;;4948515;29;20027;-77
2022/07/01 03:58:18;;;;;;;6.60;1.83;;;15.90;58.40;;;;;;4948339;28;20094;-76
2022/07/01 04:00:44;;;;;;;1.50;1.20;;;15.90;58.50;;;;;;4932221;29;20031;-76
2022/07/01 04:03:10;;;;;;;1.88;1.30;;;15.80;58.30;;;;;;4931325;29;20482;-76
2022/07/01 04:05:37;;;;;;;3.15;1.15;;;15.80;58.40;;;;;;4929710;29;20019;-77
2022/07/01 04:08:11;;;;;;;3.40;1.60;;;15.80;58.50;;;;;;4949502;29;20274;-76
2022/07/01 04:10:38;;;;;;;2.80;1.70;;;15.80;58.50;;;;;;4948020;29;20491;-76
2022/07/01 04:13:04;;;;;;;3.53;1.77;;;15.80;58.50;;;;;;4945004;29;20041;-76
2022/07/01 04:15:31;;;;;;;2.05;1.15;;;15.70;58.40;;;;;;4948471;29;20253;-75
2022/07/01 04:17:57;;;;;;;2.78;1.80;;;15.80;58.70;;;;;;4944183;29;20253;-76
2022/07/01 04:20:23;;;;;;;1.75;1.10;;;15.70;58.50;;;;;;4908326;29;20803;-76
2022/07/01 04:22:49;;;;;;;2.28;1.10;;;15.80;58.70;;;;;;4946696;28;20126;-76
2022/07/01 04:25:14;;;;;;;2.30;1.23;;;15.80;58.70;;;;;;4929659;29;20032;-78
2022/07/01 04:27:40;;;;;;;4.50;1.65;;;15.80;58.70;;;;;;4945890;29;20050;-75
2022/07/01 04:30:07;;;;;;;2.15;1.38;;;15.80;58.60;;;;;;4920341;29;20399;-76
2022/07/01 04:32:33;;;;;;;2.53;1.50;;;15.80;58.60;;;;;;4934022;29;20214;-75
2022/07/01 04:34:59;;;;;;;2.65;1.30;;;15.90;58.70;;;;;;4931764;29;20499;-75
2022/07/01 04:37:24;;;;;;;2.65;1.25;;;15.90;58.70;;;;;;4949403;29;20042;-76
2022/07/01 04:39:50;;;;;;;2.03;1.20;;;16.00;58.80;;;;;;4946930;29;20038;-76
2022/07/01 04:42:18;;;;;;;1.90;1.17;;;16.00;58.80;;;;;;4931147;29;20458;-76
2022/07/01 04:44:44;;;;;;;4.50;1.73;;;16.10;59.40;;;;;;4941025;29;20511;-76
2022/07/01 04:47:10;;;;;;;2.65;1.38;;;16.10;58.70;;;;;;4946719;29;20035;-76
2022/07/01 04:49:36;;;;;;;3.63;1.30;;;16.20;58.80;;;;;;4933215;29;20039;-76
2022/07/01 04:52:02;;;;;;;2.58;1.40;;;16.30;58.90;;;;;;4946576;28;20510;-76
2022/07/01 04:54:28;;;;;;;2.33;1.30;;;16.30;58.80;;;;;;4946274;29;20130;-76
2022/07/01 04:56:54;;;;;;;4.10;1.20;;;16.30;58.80;;;;;;4933721;29;20130;-76
2022/07/01 04:59:20;;;;;;;2.20;1.10;;;16.30;58.80;;;;;;4926001;29;20065;-77
2022/07/01 05:01:50;;;;;;;2.33;1.23;;;16.40;59.00;;;;;;4943258;29;20480;-75
2022/07/01 05:04:17;;;;;;;2.30;1.20;;;16.40;59.00;;;;;;4948823;28;20038;-77
2022/07/01 05:06:43;;;;;;;3.53;2.05;;;16.40;59.00;;;;;;4927985;29;20152;-76
2022/07/01 05:09:09;;;;;;;3.42;1.70;;;16.50;59.10;;;;;;4939370;28;20070;-77
2022/07/01 05:11:35;;;;;;;2.42;1.23;;;16.50;59.10;;;;;;4940268;29;20091;-78
2022/07/01 05:14:01;;;;;;;3.13;1.50;;;16.50;59.10;;;;;;4943698;29;20062;-76
2022/07/01 05:16:27;;;;;;;2.42;1.30;;;16.50;59.10;;;;;;4949315;28;20258;-75
2022/07/01 05:21:56;;;;;;;2.08;1.23;;;16.60;59.20;;;;;;4942930;28;20041;-76
2022/07/01 05:24:24;;;;;;;2.42;1.23;;;16.60;59.10;;;;;;4952373;28;20130;-76
2022/07/01 05:26:50;;;;;;;2.70;1.20;;;16.70;59.30;;;;;;4946020;29;20119;-77
2022/07/01 05:29:16;;;;;;;1.77;1.00;;;16.70;59.20;;;;;;4935528;29;20046;-76
2022/07/01 05:31:42;;;;;;;2.53;1.00;;;16.80;59.30;;;;;;4937759;29;20135;-76
2022/07/01 05:34:08;;;;;;;3.97;1.83;;;16.90;59.40;;;;;;4948077;29;20131;-76
2022/07/01 05:36:34;;;;;;;1.63;0.90;;;16.90;59.90;;;;;;4950056;29;20031;-76
2022/07/01 05:39:00;;;;;;;1.83;1.00;;;16.90;59.30;;;;;;4945905;29;20128;-75
2022/07/01 05:41:26;;;;;;;2.45;1.20;;;17.00;59.50;;;;;;4938232;29;20130;-75
2022/07/01 05:43:52;;;;;;;3.17;1.23;;;17.00;59.40;;;;;;4943391;28;20044;-75
2022/07/01 05:46:18;;;;;;;1.98;1.00;;;17.00;59.50;;;;;;4948831;29;20522;-80
2022/07/01 05:48:44;;;;;;;2.40;1.10;;;17.10;59.60;;;;;;4931187;29;20134;-79
2022/07/01 05:51:10;;;;;;;2.75;1.00;;;17.10;59.60;;;;;;4941813;29;20040;-76
2022/07/01 05:53:36;;;;;;;1.88;1.02;;;17.10;59.60;;;;;;4931241;29;20062;-79
2022/07/01 05:56:02;;;;;;;1.95;1.00;;;17.10;59.70;;;;;;4944562;29;20495;-75
2022/07/01 05:58:28;;;;;;;1.85;1.15;;;17.10;59.70;;;;;;4945999;28;20031;-76
2022/07/01 06:00:54;;;;;;;1.20;0.90;;;17.10;59.90;;;;;;4948140;29;20035;-77
2022/07/01 06:03:20;;;;;;;2.03;1.05;;;17.10;60.00;;;;;;4933750;29;20099;-76
2022/07/01 06:05:46;;;;;;;1.50;0.98;;;17.10;60.10;;;;;;4946486;29;20146;-78
2022/07/01 06:08:12;;;;;;;1.38;1.10;;;17.10;60.10;;;;;;4948120;29;20027;-77
2022/07/01 06:10:38;;;;;;;2.20;1.75;;;17.20;60.30;;;;;;4933610;29;20459;-76
2022/07/01 06:13:04;;;;;;;1.85;1.40;;;17.20;60.20;;;;;;4930092;29;20337;-76
2022/07/01 06:15:30;;;;;;;3.28;0.90;;;17.20;60.10;;;;;;4949987;29;20138;-76
2022/07/01 06:17:57;;;;;;;1.27;0.85;;;17.30;60.20;;;;;;4949744;29;20031;-75
2022/07/01 06:20:22;;;;;;;3.75;1.60;;;17.40;60.30;;;;;;4949322;28;20042;-78
2022/07/01 06:22:49;;;;;;;3.42;1.00;;;17.30;60.10;;;;;;4943997;28;20177;-78
2022/07/01 06:25:15;;;;;;;3.90;1.20;;;17.30;60.20;;;;;;4942665;29;20027;-79
2022/07/01 06:27:42;;;;;;;1.92;1.17;;;17.40;60.50;;;;;;4946318;29;20035;-76
2022/07/01 06:30:09;;;;;;;2.90;1.20;;;17.30;60.60;;;;;;4942545;29;20493;-76
2022/07/01 06:32:36;;;;;;;3.20;1.92;;;17.40;60.90;;;;;;4946622;29;20039;-76
2022/07/01 06:35:02;;;;;;;2.58;1.10;;;17.40;61.00;;;;;;4950225;29;20088;-77
2022/07/01 06:37:30;;;;;;;2.33;1.27;;;17.40;61.00;;;;;;4950910;29;20039;-77
2022/07/01 06:39:56;;;;;;;3.83;1.38;;;17.40;61.00;;;;;;4940340;29;20066;-77
2022/07/01 06:42:23;;;;;;;4.70;1.58;;;17.40;61.10;;;;;;4943927;28;20137;-78
2022/07/01 06:44:49;;;;;;;4.03;1.20;;;17.50;61.40;;;;;;4937601;29;20047;-76
2022/07/01 06:47:14;;;;;;;2.78;1.00;;;17.50;61.40;;;;;;4945630;29;20031;-77
2022/07/01 06:49:40;;;;;;;4.88;1.10;;;17.50;61.30;;;;;;4946027;29;20808;-76
2022/07/01 06:52:07;;;;;;;3.63;1.23;;;17.60;61.40;;;;;;4940893;29;20083;-76
2022/07/01 06:54:32;;;;;;;2.67;1.10;;;17.70;61.50;;;;;;4926884;28;20028;-76
2022/07/01 06:56:58;;;;;;;2.60;1.05;;;17.80;61.50;;;;;;4966894;28;20031;-76
2022/07/01 06:59:24;;;;;;;3.13;0.80;;;17.80;61.40;;;;;;4949505;28;20023;-76
2022/07/01 07:01:50;;;;;;;2.85;1.60;;;17.90;61.90;;;;;;4945251;29;20035;-76
2022/07/01 07:04:16;;;;;;;3.90;1.58;;;18.00;61.40;;;;;;4954729;29;20032;-76
2022/07/01 07:06:42;;;;;;;3.58;1.30;;;18.10;61.30;;;;;;4951179;29;20066;-75
2022/07/01 07:09:08;;;;;;;4.78;1.20;;;18.20;61.30;;;;;;4936970;29;20019;-74
2022/07/01 07:11:34;;;;;;;6.55;1.98;;;18.40;61.40;;;;;;4962740;29;20055;-75
2022/07/01 07:14:00;;;;;;;4.80;1.00;;;18.50;61.30;;;;;;4933194;29;20034;-77
2022/07/01 07:16:26;;;;;;;3.22;1.13;;;18.70;61.40;;;;;;4941992;29;20031;-77
2022/07/01 07:18:52;;;;;;;2.90;1.20;;;18.80;61.20;;;;;;4941954;29;20034;-78
2022/07/01 07:21:18;;;;;;;3.35;1.45;;;19.00;61.30;;;;;;4946412;29;20035;-77
2022/07/01 07:23:44;;;;;;;6.22;1.70;;;19.20;61.20;;;;;;4938902;29;20047;-79
2022/07/01 07:26:10;;;;;;;3.22;1.20;;;19.40;61.20;;;;;;4943133;29;20031;-78
2022/07/01 07:28:36;;;;;;;5.90;1.85;;;19.50;60.90;;;;;;4929652;29;20039;-76
2022/07/01 07:31:03;;;;;;;3.50;1.52;;;19.70;60.90;;;;;;4939710;28;20121;-77
2022/07/01 07:33:29;;;;;;;4.63;1.80;;;19.90;61.00;;;;;;4937962;28;20036;-76
2022/07/01 07:35:55;;;;;;;4.95;1.13;;;20.00;60.90;;;;;;4942039;28;20066;-75
2022/07/01 07:38:22;;;;;;;3.83;1.45;;;20.10;60.80;;;;;;4935956;28;20570;-76
2022/07/01 07:40:48;;;;;;;4.57;1.95;;;20.30;60.90;;;;;;4939925;28;20097;-75
2022/07/01 07:43:13;;;;;;;7.80;2.17;;;20.40;60.80;;;;;;4937020;28;20035;-77
2022/07/01 07:45:39;;;;;;;3.70;1.42;;;20.50;60.70;;;;;;4942935;28;20066;-75
2022/07/01 07:48:06;;;;;;;4.50;1.85;;;20.60;60.70;;;;;;4937595;28;20038;-75
2022/07/01 07:50:32;;;;;;;4.10;1.15;;;20.70;60.60;;;;;;4917957;29;20043;-75
2022/07/01 07:52:58;;;;;;;4.57;1.65;;;20.80;60.50;;;;;;4934265;28;20039;-74
2022/07/01 07:55:25;;;;;;;6.95;1.40;;;20.90;60.50;;;;;;4936967;28;20105;-75
2022/07/01 07:57:51;;;;;;;7.07;2.75;;;21.00;60.50;;;;;;4943938;28;20034;-75
2022/07/01 08:00:17;;;;;;;3.15;1.38;;;21.10;60.60;;;;;;4924405;29;20035;-75
2022/07/01 08:02:43;;;;;;;3.58;1.00;;;21.20;60.50;;;;;;4939897;28;20117;-75
2022/07/01 08:05:10;;;;;;;2.90;1.25;;;21.40;60.60;;;;;;4935507;28;20074;-75
2022/07/01 08:07:37;;;;;;;2.38;1.23;;;21.60;60.50;;;;;;4929434;28;20020;-75
2022/07/01 08:10:09;;;;;;;3.45;1.27;;;21.90;60.50;;;;;;4936284;28;20090;-75
2022/07/01 08:12:35;;;;;;;3.25;1.25;;;22.20;60.20;;;;;;4939520;28;20246;-75
2022/07/01 08:15:02;;;;;;;3.17;1.02;;;22.50;60.10;;;;;;4941280;28;20291;-76
2022/07/01 08:17:28;;;;;;;2.60;0.98;;;22.70;59.90;;;;;;4940813;28;20038;-76
2022/07/01 08:19:54;;;;;;;4.28;1.25;;;22.90;59.70;;;;;;4944133;28;20114;-76
2022/07/01 08:22:19;;;;;;;2.08;1.08;;;23.10;59.70;;;;;;4935377;28;20023;-75
2022/07/01 08:24:46;;;;;;;3.85;1.10;;;23.20;59.30;;;;;;4897438;28;20854;-76
2022/07/01 08:27:15;;;;;;;3.35;1.00;;;23.40;59.30;;;;;;4922311;28;20074;-76
2022/07/01 08:29:41;;;;;;;4.20;1.10;;;23.40;59.10;;;;;;4933715;28;20114;-77
2022/07/01 08:32:08;;;;;;;2.58;1.25;;;23.50;59.00;;;;;;4919945;29;20075;-75
2022/07/01 08:34:35;;;;;;;3.75;0.77;;;23.50;58.90;;;;;;4942561;28;20035;-75
2022/07/01 08:37:04;;;;;;;2.78;1.05;;;23.60;58.80;;;;;;4940264;28;20027;-76
2022/07/01 08:39:30;;;;;;;2.85;0.70;;;23.70;59.30;;;;;;4918062;29;20493;-75
2022/07/01 08:41:57;;;;;;;2.70;0.80;;;23.80;58.60;;;;;;4940644;28;20039;-75
2022/07/01 08:44:23;;;;;;;3.13;1.45;;;23.90;58.40;;;;;;4936320;28;20055;-75
2022/07/01 08:46:50;;;;;;;6.25;1.20;;;24.00;58.20;;;;;;4947756;28;20593;-76
2022/07/01 08:49:16;;;;;;;2.83;0.88;;;24.10;58.10;;;;;;4938211;28;20028;-75
2022/07/01 08:51:43;;;;;;;3.13;0.85;;;24.30;58.20;;;;;;4944692;28;20032;-75
2022/07/01 08:54:10;;;;;;;3.10;0.82;;;24.30;57.80;;;;;;4945961;28;20140;-76
2022/07/01 08:56:42;;;;;;;1.85;0.80;;;24.40;57.80;;;;;;4944436;28;20041;-76
2022/07/01 08:59:10;;;;;;;4.28;0.80;;;24.50;57.70;;;;;;4939246;28;20400;-76
2022/07/01 09:01:37;;;;;;;2.60;0.82;;;24.50;57.50;;;;;;4936928;28;20452;-77
2022/07/01 09:04:19;;;;;;;3.05;0.82;;;24.50;57.20;;;;;;4940203;29;20540;-75
2022/07/01 09:06:46;;;;;;;4.63;1.03;;;24.70;57.10;;;;;;4948003;28;20031;-75
2022/07/01 09:09:17;;;;;;;2.78;1.08;;;24.80;57.00;;;;;;4928114;29;20031;-75
2022/07/01 09:11:45;;;;;;;2.47;0.70;;;25.10;56.90;;;;;;4935564;28;20134;-76
2022/07/01 09:14:14;;;;;;;1.60;0.90;;;25.20;56.50;;;;;;4929249;29;20035;-75
2022/07/01 09:16:42;;;;;;;2.65;0.65;;;25.20;56.30;;;;;;4950969;28;20430;-75
2022/07/01 09:19:08;;;;;;;4.15;1.15;;;25.40;56.10;;;;;;4934419;28;20019;-75
2022/07/01 09:21:34;;;;;;;1.45;0.75;;;25.50;55.70;;;;;;4936712;29;20138;-73
2022/07/01 09:24:22;;;;;;;2.40;0.70;;;25.60;55.50;;;;;;4947357;28;20035;-76
2022/07/01 09:26:56;;;;;;;3.15;0.90;;;25.60;55.30;;;;;;4919561;29;20055;-75
2022/07/01 09:29:34;;;;;;;4.05;0.85;;;25.60;55.30;;;;;;4935735;28;20027;-75
2022/07/01 09:32:04;;;;;;;2.08;0.70;;;25.70;55.30;;;;;;4913739;29;20537;-76
2022/07/01 09:34:42;;;;;;;3.55;1.00;;;25.90;55.20;;;;;;4927264;29;20319;-77
2022/07/01 09:37:12;;;;;;;2.00;0.50;;;26.20;54.70;;;;;;4935080;29;20159;-78
2022/07/01 09:39:48;;;;;;;2.22;0.50;;;26.40;54.20;;;;;;4942168;28;20051;-76
2022/07/01 09:42:17;;;;;;;1.98;1.00;;;26.80;53.80;;;;;;4941875;28;20031;-77
2022/07/01 09:44:56;;;;;;;2.40;1.02;;;27.00;53.40;;;;;;4922147;29;20152;-75
2022/07/01 09:47:23;;;;;;;4.60;1.00;;;27.20;52.70;;;;;;4941641;28;20030;-76
2022/07/01 09:49:50;;;;;;;1.38;0.65;;;27.60;52.50;;;;;;4927913;28;20085;-77
2022/07/01 09:52:17;;;;;;;3.90;1.08;;;27.90;52.80;;;;;;4920531;28;20039;-76
2022/07/01 09:54:44;;;;;;;2.28;0.65;;;28.20;51.70;;;;;;4942512;28;20613;-76
2022/07/01 09:57:10;;;;;;;2.60;0.60;;;28.40;51.00;;;;;;4933049;28;20043;-76
2022/07/01 09:59:36;;;;;;;2.25;0.68;;;28.50;50.70;;;;;;4943035;28;20035;-76
2022/07/01 10:02:02;;;;;;;2.40;0.60;;;28.70;50.40;;;;;;4947053;28;20058;-76
2022/07/01 10:04:32;;;;;;;2.20;0.77;;;29.00;50.10;;;;;;4942318;28;20023;-76
2022/07/01 10:07:39;;;;;;;2.92;0.73;;;29.40;49.50;;;;;;4938583;28;20090;-77
2022/07/01 10:10:21;;;;;;;2.55;0.50;;;29.70;48.80;;;;;;4907751;28;20067;-76
2022/07/01 10:12:52;;;;;;;3.00;0.73;;;30.10;48.30;;;;;;4941758;28;20300;-75
2022/07/01 10:15:20;;;;;;;2.13;0.70;;;30.10;47.90;;;;;;4939156;28;20031;-75
2022/07/01 10:17:50;;;;;;;2.08;0.55;;;30.10;47.70;;;;;;4919433;29;20569;-78
2022/07/01 10:20:24;;;;;;;2.30;0.70;;;30.00;47.60;;;;;;4946783;28;20039;-80
2022/07/01 10:22:50;;;;;;;2.08;0.70;;;29.90;47.60;;;;;;4939454;28;20142;-78
2022/07/01 10:25:34;;;;;;;2.55;0.70;;;29.90;47.70;;;;;;4947987;28;20066;-78
2022/07/01 10:28:23;;;;;;;0.80;0.30;;;30.10;47.10;;;;;;4938728;28;20363;-80
2022/07/01 10:30:59;;;;;;;0.98;0.32;;;30.40;46.70;;;;;;4927188;29;20448;-77
2022/07/01 10:33:42;;;;;;;1.65;0.50;;;30.70;46.20;;;;;;4925933;29;20789;-77
2022/07/01 10:36:08;;;;;;;1.42;0.40;;;30.90;45.60;;;;;;4931417;28;20126;-79
2022/07/01 10:38:35;;;;;;;2.13;0.50;;;31.10;45.70;;;;;;4937923;28;20682;-76
2022/07/01 10:41:09;;;;;;;1.55;0.50;;;31.20;45.20;;;;;;4939990;28;20226;-75
2022/07/01 10:43:37;;;;;;;1.23;0.60;;;31.30;45.10;;;;;;4931106;28;20043;-79
2022/07/01 10:46:04;;;;;;;1.92;0.55;;;31.50;44.80;;;;;;4931642;28;20435;-77
2022/07/01 10:48:34;;;;;;;2.45;0.60;;;31.70;44.30;;;;;;4924142;29;20063;-79
2022/07/01 10:51:00;;;;;;;1.33;0.60;;;31.80;44.00;;;;;;4933425;29;20036;-78
2022/07/01 10:53:47;;;;;;;1.50;0.35;;;31.90;44.00;;;;;;4938604;28;20087;-78
2022/07/01 10:56:38;;;;;;;1.58;0.40;;;32.10;43.60;;;;;;4924659;29;20110;-79
2022/07/01 10:59:04;;;;;;;1.92;0.60;;;32.40;43.50;;;;;;4928723;28;20182;-77
2022/07/01 11:01:30;;;;;;;0.65;0.38;;;32.40;43.50;;;;;;4924610;29;20413;-77
2022/07/01 11:03:56;;;;;;;2.75;0.43;;;32.20;43.30;;;;;;4936816;28;20055;-79
2022/07/01 11:06:24;;;;;;;4.53;0.70;;;31.90;43.40;;;;;;4938706;28;20039;-76
2022/07/01 11:08:50;;;;;;;1.02;0.55;;;31.70;43.50;;;;;;4924159;29;20064;-75
2022/07/01 11:11:17;;;;;;;0.77;0.38;;;31.50;43.70;;;;;;4925997;28;20036;-76
2022/07/01 11:13:43;;;;;;;2.45;0.73;;;31.40;43.80;;;;;;4934981;28;20042;-75
2022/07/01 11:16:10;;;;;;;1.35;0.52;;;31.40;43.80;;;;;;4923446;29;20060;-76
2022/07/01 11:18:35;;;;;;;0.52;0.32;;;31.40;43.80;;;;;;4940480;28;20031;-75
2022/07/01 11:21:09;;;;;;;2.05;0.47;;;31.40;43.70;;;;;;4940594;28;20050;-77
2022/07/01 11:23:36;;;;;;;1.20;0.30;;;31.40;43.50;;;;;;4922191;29;20166;-78
2022/07/01 11:26:02;;;;;;;2.17;0.60;;;31.30;43.60;;;;;;4946257;28;20031;-77
2022/07/01 11:28:27;;;;;;;2.72;0.47;;;31.20;43.60;;;;;;4930701;28;20527;-77
2022/07/01 11:31:01;;;;;;;2.38;0.73;;;31.10;43.60;;;;;;4931078;28;20042;-78
2022/07/01 11:33:27;;;;;;;1.05;0.32;;;30.90;43.50;;;;;;4942548;28;20086;-76
2022/07/01 11:41:25;;;;;;;2.30;0.38;;;30.30;44.10;;;;;;4922520;29;20444;-77
2022/07/01 11:43:52;;;;;;;3.80;0.73;;;30.10;44.30;;;;;;4941708;28;20086;-77
2022/07/01 11:46:18;;;;;;;2.53;0.70;;;30.10;44.50;;;;;;4932187;28;20038;-78
2022/07/01 11:48:50;;;;;;;1.48;0.50;;;30.30;44.50;;;;;;4940845;28;20039;-79
2022/07/01 11:51:22;;;;;;;1.65;0.40;;;30.50;44.10;;;;;;4920430;29;20046;-79
2022/07/01 11:53:50;;;;;;;0.77;0.43;;;30.70;43.80;;;;;;4942219;28;20027;-75
2022/07/01 11:56:27;;;;;;;0.77;0.30;;;30.70;43.70;;;;;;4921123;28;20031;-77
2022/07/01 11:58:55;;;;;;;1.42;0.40;;;30.50;43.90;;;;;;4932365;28;20494;-76
2022/07/01 12:01:21;;;;;;;1.35;0.30;;;30.20;44.20;;;;;;4922611;28;20035;-75
2022/07/01 12:03:48;;;;;;;2.80;0.77;;;29.90;44.50;;;;;;4944644;29;20031;-77
2022/07/01 12:06:16;;;;;;;1.23;0.45;;;29.70;44.70;;;;;;4944230;28;20416;-75
2022/07/01 12:08:44;;;;;;;1.15;0.47;;;29.70;45.10;;;;;;4937269;28;20054;-76
2022/07/01 12:11:10;;;;;;;0.95;0.43;;;29.60;45.20;;;;;;4936776;28;20039;-78
2022/07/01 12:13:38;;;;;;;0.95;0.50;;;29.60;45.20;;;;;;4920505;29;20540;-77
2022/07/01 12:16:09;;;;;;;2.05;0.55;;;29.60;45.20;;;;;;4940076;28;20042;-78
2022/07/01 12:18:35;;;;;;;1.52;0.50;;;29.50;45.20;;;;;;4909441;29;20114;-76
2022/07/01 12:21:01;;;;;;;1.30;0.43;;;29.40;45.30;;;;;;4928078;28;20031;-77
2022/07/01 12:23:27;;;;;;;1.15;0.50;;;29.40;45.40;;;;;;4939322;28;20107;-76
2022/07/01 12:25:54;;;;;;;0.70;0.30;;;29.40;45.50;;;;;;4928736;28;20787;-77
2022/07/01 12:28:29;;;;;;;1.70;0.73;;;29.40;45.50;;;;;;4942767;28;20062;-78
2022/07/01 12:31:04;;;;;;;0.60;0.40;;;29.40;45.40;;;;;;4939044;28;20071;-78
2022/07/01 12:33:30;;;;;;;0.95;0.30;;;29.60;45.20;;;;;;4948441;28;20597;-77
2022/07/01 12:35:56;;;;;;;1.25;0.40;;;29.80;45.10;;;;;;4942147;28;20027;-78
2022/07/01 12:38:22;;;;;;;1.80;0.38;;;29.90;44.90;;;;;;4948338;28;20031;-77
2022/07/01 12:40:48;;;;;;;1.63;0.30;;;30.00;44.80;;;;;;4939966;28;20038;-77
2022/07/01 12:43:23;;;;;;;0.30;0.20;;;30.00;44.80;;;;;;4932543;28;20055;-77
2022/07/01 12:45:49;;;;;;;1.00;0.35;;;29.90;44.50;;;;;;4942841;28;20483;-76
2022/07/01 12:48:15;;;;;;;0.88;0.20;;;29.90;44.70;;;;;;4940019;28;20031;-77
2022/07/01 12:50:41;;;;;;;1.48;0.50;;;29.90;44.70;;;;;;4945010;28;20067;-78
2022/07/01 12:53:16;;;;;;;0.40;0.20;;;29.80;44.70;;;;;;4923527;29;20040;-76
2022/07/01 12:55:44;;;;;;;0.60;0.20;;;29.80;44.70;;;;;;4933802;28;20094;-76
2022/07/01 12:58:13;;;;;;;0.85;0.40;;;29.90;44.70;;;;;;4930997;28;20118;-77
2022/07/01 13:00:41;;;;;;;0.77;0.30;;;30.00;44.60;;;;;;4937916;28;20572;-76